createdAt,value
2023-11-15T00:00:44.887Z,983.6
2023-11-15T00:01:59.180Z,983.6
2023-11-15T00:03:13.474Z,983.7
2023-11-15T00:04:27.767Z,983.8
2023-11-15T00:05:41.077Z,983.8
2023-11-15T00:06:55.370Z,983.7
2023-11-15T00:08:09.664Z,983.6
2023-11-15T00:09:23.958Z,983.7
2023-11-15T00:10:38.252Z,983.8
2023-11-15T00:11:52.545Z,983.8
2023-11-15T00:13:06.839Z,983.8
2023-11-15T00:14:21.132Z,983.6
2023-11-15T00:15:35.426Z,983.6
2023-11-15T00:16:49.719Z,983.7
2023-11-15T00:18:04.013Z,983.8
2023-11-15T00:19:18.306Z,983.8
2023-11-15T00:20:32.600Z,983.8
2023-11-15T00:21:45.909Z,983.9
2023-11-15T00:23:00.204Z,983.9
2023-11-15T00:24:14.497Z,983.9
2023-11-15T00:25:28.791Z,983.9
2023-11-15T00:26:43.085Z,983.9
2023-11-15T00:27:57.378Z,983.9
2023-11-15T00:29:11.672Z,984
2023-11-15T00:30:25.965Z,984
2023-11-15T00:31:40.259Z,984
2023-11-15T00:32:54.552Z,984
2023-11-15T00:34:08.846Z,984
2023-11-15T00:35:23.139Z,984
2023-11-15T00:36:37.433Z,984
2023-11-15T00:37:50.743Z,984
2023-11-15T00:39:05.036Z,984.1
2023-11-15T00:40:19.330Z,984.1
2023-11-15T00:41:33.623Z,984.1
2023-11-15T00:42:47.917Z,984.1
2023-11-15T00:44:02.210Z,984.1
2023-11-15T00:45:16.504Z,984.2
2023-11-15T00:46:29.818Z,984.2
2023-11-15T00:47:44.112Z,984.2
2023-11-15T00:48:58.406Z,984.2
2023-11-15T00:50:12.699Z,984.3
2023-11-15T00:51:26.993Z,984.3
2023-11-15T00:52:41.286Z,984.3
2023-11-15T00:53:55.580Z,984.3
2023-11-15T00:55:09.873Z,984.3
2023-11-15T00:56:24.167Z,984.4
2023-11-15T00:57:38.460Z,984.4
2023-11-15T00:58:52.754Z,984.4
2023-11-15T01:00:07.048Z,984.4
2023-11-15T01:01:21.341Z,984.4
2023-11-15T01:02:34.651Z,984.5
2023-11-15T01:03:48.944Z,984.5
2023-11-15T01:05:03.238Z,984.6
2023-11-15T01:06:17.531Z,984.6
2023-11-15T01:07:31.825Z,984.6
2023-11-15T01:08:46.118Z,984.6
2023-11-15T01:10:00.412Z,984.7
2023-11-15T01:11:14.706Z,984.7
2023-11-15T01:12:28.999Z,984.7
2023-11-15T01:13:43.293Z,984.7
2023-11-15T01:14:57.586Z,984.8
2023-11-15T01:16:11.880Z,984.8
2023-11-15T01:17:26.173Z,984.8
2023-11-15T01:18:39.483Z,984.8
2023-11-15T01:19:53.776Z,984.8
2023-11-15T01:21:08.070Z,984.9
2023-11-15T01:22:22.364Z,984.9
2023-11-15T01:23:36.657Z,985
2023-11-15T01:24:50.952Z,985
2023-11-15T01:26:05.245Z,985
2023-11-15T01:27:19.539Z,985.1
2023-11-15T01:28:33.832Z,985.1
2023-11-15T01:29:48.126Z,985.1
2023-11-15T01:31:02.420Z,985.2
2023-11-15T01:32:16.713Z,985.2
2023-11-15T01:33:31.007Z,985.2
2023-11-15T01:34:44.317Z,985.3
2023-11-15T01:35:58.610Z,985.3
2023-11-15T01:37:12.904Z,985.4
2023-11-15T01:38:27.198Z,985.4
2023-11-15T01:39:41.492Z,985.4
2023-11-15T01:40:55.785Z,985.5
2023-11-15T01:42:10.079Z,985.5
2023-11-15T01:43:24.373Z,985.5
2023-11-15T01:44:38.666Z,985.5
2023-11-15T01:45:52.960Z,985.6
2023-11-15T01:47:07.253Z,985.6
2023-11-15T01:48:21.547Z,985.6
2023-11-15T01:49:35.840Z,985.7
2023-11-15T01:50:49.150Z,985.7
2023-11-15T01:52:03.444Z,985.7
2023-11-15T01:53:17.738Z,985.8
2023-11-15T01:54:32.031Z,985.8
2023-11-15T01:55:46.325Z,985.8
2023-11-15T01:57:00.618Z,985.8
2023-11-15T01:58:14.912Z,985.8
2023-11-15T01:59:29.205Z,985.8
2023-11-15T02:00:43.499Z,985.8
2023-11-15T02:01:57.792Z,985.9
2023-11-15T02:03:12.086Z,985.9
2023-11-15T02:04:26.380Z,985.9
2023-11-15T02:05:40.673Z,985.9
2023-11-15T02:06:53.983Z,985.9
2023-11-15T02:08:08.277Z,986
2023-11-15T02:09:22.570Z,986
2023-11-15T02:10:36.864Z,986
2023-11-15T02:11:51.157Z,986
2023-11-15T02:13:05.451Z,986.1
2023-11-15T02:14:19.745Z,986.1
2023-11-15T02:15:34.038Z,986.1
2023-11-15T02:16:48.332Z,986.1
2023-11-15T02:18:02.625Z,986.1
2023-11-15T02:19:16.919Z,986.2
2023-11-15T02:20:31.212Z,986.3
2023-11-15T02:21:45.506Z,986.3
2023-11-15T02:22:58.816Z,986.3
2023-11-15T02:24:13.109Z,986.3
2023-11-15T02:25:27.403Z,986.3
2023-11-15T02:26:41.697Z,986.3
2023-11-15T02:27:55.990Z,986.4
2023-11-15T02:29:10.284Z,986.4
2023-11-15T02:30:24.578Z,986.4
2023-11-15T02:31:38.872Z,986.4
2023-11-15T02:32:53.165Z,986.4
2023-11-15T02:34:07.459Z,986.5
2023-11-15T02:35:21.753Z,986.5
2023-11-15T02:36:36.046Z,986.5
2023-11-15T02:37:50.340Z,986.5
2023-11-15T02:39:03.649Z,986.5
2023-11-15T02:40:17.943Z,986.6
2023-11-15T02:41:32.237Z,986.6
2023-11-15T02:42:46.530Z,986.6
2023-11-15T02:44:00.824Z,986.6
2023-11-15T02:45:15.117Z,986.7
2023-11-15T02:46:29.411Z,986.7
2023-11-15T02:47:43.705Z,986.7
2023-11-15T02:48:57.998Z,986.8
2023-11-15T02:50:12.292Z,986.8
2023-11-15T02:51:26.585Z,986.8
2023-11-15T02:52:40.879Z,986.8
2023-11-15T02:53:55.173Z,986.8
2023-11-15T02:55:08.483Z,986.9
2023-11-15T02:56:22.777Z,986.8
2023-11-15T02:57:37.071Z,986.9
2023-11-15T02:58:51.364Z,986.9
2023-11-15T03:00:05.658Z,987
2023-11-15T03:01:19.951Z,986.9
2023-11-15T03:02:34.245Z,986.9
2023-11-15T03:03:48.538Z,987
2023-11-15T03:05:02.832Z,987
2023-11-15T03:06:17.125Z,987
2023-11-15T03:07:31.420Z,987
2023-11-15T03:08:45.714Z,987.1
2023-11-15T03:10:00.007Z,987.1
2023-11-15T03:11:13.317Z,987.1
2023-11-15T03:12:27.610Z,987.2
2023-11-15T03:13:41.904Z,987.2
2023-11-15T03:14:56.198Z,987.2
2023-11-15T03:16:10.491Z,987.2
2023-11-15T03:17:24.785Z,987.2
2023-11-15T03:18:39.078Z,987.2
2023-11-15T03:19:53.372Z,987.3
2023-11-15T03:21:07.666Z,987.3
2023-11-15T03:22:21.959Z,987.2
2023-11-15T03:23:36.253Z,987.3
2023-11-15T03:24:50.546Z,987.4
2023-11-15T03:26:04.840Z,987.4
2023-11-15T03:27:18.149Z,987.4
2023-11-15T03:28:32.443Z,987.4
2023-11-15T03:29:46.737Z,987.5
2023-11-15T03:31:01.030Z,987.6
2023-11-15T03:32:15.324Z,987.6
2023-11-15T03:33:29.617Z,987.7
2023-11-15T03:34:43.911Z,987.7
2023-11-15T03:35:58.205Z,987.7
2023-11-15T03:37:12.498Z,987.7
2023-11-15T03:38:26.792Z,987.7
2023-11-15T03:39:41.086Z,987.8
2023-11-15T03:40:55.379Z,987.8
2023-11-15T03:42:09.673Z,987.8
2023-11-15T03:43:22.982Z,987.8
2023-11-15T03:44:37.276Z,987.8
2023-11-15T03:45:51.569Z,987.9
2023-11-15T03:47:05.863Z,987.9
2023-11-15T03:48:20.156Z,987.9
2023-11-15T03:49:34.450Z,987.9
2023-11-15T03:50:48.744Z,987.9
2023-11-15T03:52:03.037Z,988
2023-11-15T03:53:17.331Z,988
2023-11-15T03:54:31.625Z,988
2023-11-15T03:55:45.918Z,988
2023-11-15T03:57:00.212Z,988.1
2023-11-15T03:58:14.505Z,988.1
2023-11-15T03:59:27.815Z,988.1
2023-11-15T04:00:42.108Z,988.2
2023-11-15T04:01:56.402Z,988.2
2023-11-15T04:03:10.696Z,988.2
2023-11-15T04:04:24.989Z,988.2
2023-11-15T04:05:39.283Z,988.2
2023-11-15T04:06:53.576Z,988.3
2023-11-15T04:08:07.870Z,988.3
2023-11-15T04:09:22.163Z,988.4
2023-11-15T04:10:36.457Z,988.4
2023-11-15T04:11:50.751Z,988.4
2023-11-15T04:13:05.045Z,988.4
2023-11-15T04:14:19.338Z,988.5
2023-11-15T04:15:32.648Z,988.5
2023-11-15T04:16:46.941Z,988.5
2023-11-15T04:18:01.235Z,988.5
2023-11-15T04:19:15.528Z,988.5
2023-11-15T04:20:29.822Z,988.5
2023-11-15T04:21:44.115Z,988.5
2023-11-15T04:22:58.409Z,988.6
2023-11-15T04:24:12.703Z,988.6
2023-11-15T04:25:26.996Z,988.6
2023-11-15T04:26:41.290Z,988.6
2023-11-15T04:27:55.584Z,988.7
2023-11-15T04:29:09.877Z,988.7
2023-11-15T04:30:24.171Z,988.6
2023-11-15T04:31:37.480Z,988.7
2023-11-15T04:32:51.774Z,988.7
2023-11-15T04:34:06.068Z,988.7
2023-11-15T04:35:20.361Z,988.7
2023-11-15T04:36:34.655Z,988.7
2023-11-15T04:37:48.948Z,988.6
2023-11-15T04:39:03.242Z,988.6
2023-11-15T04:40:17.535Z,988.6
2023-11-15T04:41:31.829Z,988.6
2023-11-15T04:42:46.122Z,988.6
2023-11-15T04:44:00.416Z,988.6
2023-11-15T04:45:14.710Z,988.6
2023-11-15T04:46:29.003Z,988.7
2023-11-15T04:47:42.313Z,988.7
2023-11-15T04:48:56.607Z,988.8
2023-11-15T04:50:10.900Z,988.8
2023-11-15T04:51:25.194Z,988.8
2023-11-15T04:52:39.487Z,988.8
2023-11-15T04:53:53.781Z,988.9
2023-11-15T04:55:07.095Z,988.9
2023-11-15T04:56:21.389Z,988.9
2023-11-15T04:57:35.683Z,989
2023-11-15T04:58:49.976Z,989
2023-11-15T05:00:04.270Z,989
2023-11-15T05:01:18.563Z,989
2023-11-15T05:02:32.857Z,989.1
2023-11-15T05:03:47.151Z,989.1
2023-11-15T05:05:01.444Z,989.1
2023-11-15T05:06:15.738Z,989.2
2023-11-15T05:07:30.031Z,989.2
2023-11-15T05:08:44.325Z,989.2
2023-11-15T05:09:58.619Z,989.2
2023-11-15T05:11:11.928Z,989.3
2023-11-15T05:12:26.222Z,989.3
2023-11-15T05:13:40.515Z,989.3
2023-11-15T05:14:54.809Z,989.3
2023-11-15T05:16:09.102Z,989.4
2023-11-15T05:17:23.396Z,989.4
2023-11-15T05:18:37.690Z,989.4
2023-11-15T05:19:51.983Z,989.4
2023-11-15T05:21:06.277Z,989.5
2023-11-15T05:22:20.570Z,989.5
2023-11-15T05:23:34.864Z,989.5
2023-11-15T05:24:49.157Z,989.6
2023-11-15T05:26:03.451Z,989.6
2023-11-15T05:27:16.761Z,989.6
2023-11-15T05:28:31.056Z,989.7
2023-11-15T05:29:45.349Z,989.7
2023-11-15T05:30:59.643Z,989.7
2023-11-15T05:32:13.936Z,989.7
2023-11-15T05:33:28.230Z,989.7
2023-11-15T05:34:42.523Z,989.7
2023-11-15T05:35:56.817Z,989.7
2023-11-15T05:37:11.110Z,989.8
2023-11-15T05:38:25.404Z,989.8
2023-11-15T05:39:39.699Z,989.8
2023-11-15T05:40:53.992Z,989.9
2023-11-15T05:42:08.286Z,989.9
2023-11-15T05:43:21.596Z,989.9
2023-11-15T05:44:35.889Z,989.9
2023-11-15T05:45:50.183Z,989.9
2023-11-15T05:47:04.476Z,990
2023-11-15T05:48:18.770Z,990
2023-11-15T05:49:33.064Z,990
2023-11-15T05:50:47.357Z,990
2023-11-15T05:52:01.651Z,990.1
2023-11-15T05:53:15.945Z,990.1
2023-11-15T05:54:30.239Z,990.1
2023-11-15T05:55:44.478Z,990.1
2023-11-15T05:56:58.772Z,990.1
2023-11-15T05:58:13.066Z,990.2
2023-11-15T05:59:26.332Z,990.2
2023-11-15T06:00:40.626Z,990.2
2023-11-15T06:01:54.920Z,990.2
2023-11-15T06:03:09.214Z,990.2
2023-11-15T06:04:23.465Z,990.3
2023-11-15T06:05:37.759Z,990.2
2023-11-15T06:06:52.053Z,990.2
2023-11-15T06:08:06.303Z,990.2
2023-11-15T06:09:20.543Z,990.3
2023-11-15T06:10:34.783Z,990.3
2023-11-15T06:11:49.023Z,990.3
2023-11-15T06:13:03.262Z,990.3
2023-11-15T06:14:17.502Z,990.3
2023-11-15T06:15:30.757Z,990.3
2023-11-15T06:16:44.997Z,990.4
2023-11-15T06:17:59.237Z,990.4
2023-11-15T06:19:13.476Z,990.4
2023-11-15T06:20:27.716Z,990.4
2023-11-15T06:21:41.955Z,990.5
2023-11-15T06:22:56.195Z,990.5
2023-11-15T06:24:10.435Z,990.6
2023-11-15T06:25:24.674Z,990.6
2023-11-15T06:26:38.914Z,990.6
2023-11-15T06:27:53.153Z,990.6
2023-11-15T06:29:07.394Z,990.6
2023-11-15T06:30:21.633Z,990.7
2023-11-15T06:31:34.889Z,990.7
2023-11-15T06:32:49.129Z,990.7
2023-11-15T06:34:03.369Z,990.7
2023-11-15T06:35:17.608Z,990.7
2023-11-15T06:36:31.848Z,990.8
2023-11-15T06:37:46.087Z,990.8
2023-11-15T06:39:00.327Z,990.9
2023-11-15T06:40:14.566Z,990.9
2023-11-15T06:41:28.806Z,990.9
2023-11-15T06:42:43.046Z,990.9
2023-11-15T06:43:57.285Z,991
2023-11-15T06:45:11.525Z,991
2023-11-15T06:46:25.764Z,991
2023-11-15T06:47:39.020Z,991
2023-11-15T06:48:53.260Z,991
2023-11-15T06:50:07.499Z,991.1
2023-11-15T06:51:21.739Z,991
2023-11-15T06:52:35.978Z,991.1
2023-11-15T06:53:50.218Z,991.1
2023-11-15T06:55:04.458Z,991.1
2023-11-15T06:56:18.697Z,991.1
2023-11-15T06:57:32.937Z,991.1
2023-11-15T06:58:47.176Z,991.1
2023-11-15T07:00:01.416Z,991.2
2023-11-15T07:01:15.655Z,991.2
2023-11-15T07:02:29.895Z,991.2
2023-11-15T07:03:43.151Z,991.2
2023-11-15T07:04:57.390Z,991.3
2023-11-15T07:06:11.630Z,991.3
2023-11-15T07:07:25.870Z,991.3
2023-11-15T07:08:40.109Z,991.3
2023-11-15T07:09:54.349Z,991.4
2023-11-15T07:11:08.588Z,991.4
2023-11-15T07:12:22.828Z,991.5
2023-11-15T07:13:37.067Z,991.5
2023-11-15T07:14:51.308Z,991.5
2023-11-15T07:16:05.548Z,991.6
2023-11-15T07:17:19.787Z,991.6
2023-11-15T07:18:34.027Z,991.6
2023-11-15T07:19:47.282Z,991.7
2023-11-15T07:21:01.522Z,991.6
2023-11-15T07:22:15.762Z,991.7
2023-11-15T07:23:30.001Z,991.7
2023-11-15T07:24:44.241Z,991.8
2023-11-15T07:25:58.480Z,991.8
2023-11-15T07:27:12.720Z,991.8
2023-11-15T07:28:26.959Z,991.8
2023-11-15T07:29:41.199Z,991.8
2023-11-15T07:30:55.438Z,991.8
2023-11-15T07:32:09.678Z,991.9
2023-11-15T07:33:23.917Z,991.9
2023-11-15T07:34:38.157Z,991.9
2023-11-15T07:35:51.412Z,991.9
2023-11-15T07:37:05.652Z,992
2023-11-15T07:38:19.892Z,992
2023-11-15T07:39:34.131Z,992
2023-11-15T07:40:48.371Z,992.1
2023-11-15T07:42:02.610Z,992.1
2023-11-15T07:43:16.850Z,992.1
2023-11-15T07:44:31.089Z,992.1
2023-11-15T07:45:45.330Z,992.1
2023-11-15T07:46:59.570Z,992.1
2023-11-15T07:48:13.809Z,992.1
2023-11-15T07:49:28.049Z,992.2
2023-11-15T07:50:42.288Z,992.2
2023-11-15T07:51:55.544Z,992.2
2023-11-15T07:53:09.783Z,992.2
2023-11-15T07:54:24.023Z,992.2
2023-11-15T07:55:38.262Z,992.2
2023-11-15T07:56:52.502Z,992.2
2023-11-15T07:58:06.741Z,992.2
2023-11-15T07:59:20.981Z,992.2
2023-11-15T08:00:35.220Z,992.2
2023-11-15T08:01:49.460Z,992.2
2023-11-15T08:03:03.699Z,992.2
2023-11-15T08:04:17.939Z,992.2
2023-11-15T08:05:31.199Z,992.3
2023-11-15T08:06:44.460Z,992.3
2023-11-15T08:07:57.716Z,992.3
2023-11-15T08:09:11.955Z,992.3
2023-11-15T08:10:26.195Z,992.4
2023-11-15T08:11:40.435Z,992.4
2023-11-15T08:12:54.674Z,992.4
2023-11-15T08:14:08.914Z,992.4
2023-11-15T08:15:23.153Z,992.5
2023-11-15T08:16:37.393Z,992.5
2023-11-15T08:17:51.632Z,992.5
2023-11-15T08:19:05.872Z,992.5
2023-11-15T08:20:20.111Z,992.6
2023-11-15T08:21:34.351Z,992.6
2023-11-15T08:22:48.591Z,992.6
2023-11-15T08:24:01.846Z,992.6
2023-11-15T08:25:16.086Z,992.7
2023-11-15T08:26:30.326Z,992.7
2023-11-15T08:27:44.565Z,992.7
2023-11-15T08:28:58.805Z,992.7
2023-11-15T08:30:13.045Z,992.7
2023-11-15T08:31:27.285Z,992.7
2023-11-15T08:32:41.525Z,992.7
2023-11-15T08:33:55.764Z,992.8
2023-11-15T08:35:10.004Z,992.8
2023-11-15T08:36:24.243Z,992.9
2023-11-15T08:37:38.483Z,992.9
2023-11-15T08:38:52.722Z,992.9
2023-11-15T08:40:05.978Z,992.9
2023-11-15T08:41:20.218Z,992.9
2023-11-15T08:42:34.457Z,992.9
2023-11-15T08:43:48.697Z,992.9
2023-11-15T08:45:02.937Z,992.9
2023-11-15T08:46:17.176Z,992.9
2023-11-15T08:47:31.416Z,992.9
2023-11-15T08:48:45.655Z,992.9
2023-11-15T08:49:59.895Z,992.9
2023-11-15T08:51:14.135Z,992.9
2023-11-15T08:52:28.374Z,992.9
2023-11-15T08:53:42.614Z,992.9
2023-11-15T08:54:56.854Z,993
2023-11-15T08:56:10.109Z,993
2023-11-15T08:57:24.349Z,993
2023-11-15T08:58:38.588Z,993
2023-11-15T08:59:52.828Z,993.1
2023-11-15T09:01:07.067Z,993.1
2023-11-15T09:02:21.307Z,993.1
2023-11-15T09:03:34.568Z,993.1
2023-11-15T09:04:48.807Z,993.2
2023-11-15T09:06:03.047Z,993.2
2023-11-15T09:07:17.287Z,993.2
2023-11-15T09:08:31.526Z,993.2
2023-11-15T09:09:45.766Z,993.2
2023-11-15T09:11:00.005Z,993.2
2023-11-15T09:12:14.245Z,993.2
2023-11-15T09:13:28.484Z,993.3
2023-11-15T09:14:42.724Z,993.3
2023-11-15T09:15:56.963Z,993.3
2023-11-15T09:17:11.203Z,993.3
2023-11-15T09:18:25.442Z,993.3
2023-11-15T09:19:38.675Z,993.3
2023-11-15T09:20:52.938Z,993.3
2023-11-15T09:22:07.177Z,993.3
2023-11-15T09:23:21.417Z,993.3
2023-11-15T09:24:35.656Z,993.3
2023-11-15T09:25:49.897Z,993.3
2023-11-15T09:27:04.136Z,993.4
2023-11-15T09:28:18.376Z,993.4
2023-11-15T09:29:32.615Z,993.4
2023-11-15T09:30:46.855Z,993.5
2023-11-15T09:32:01.094Z,993.4
2023-11-15T09:33:15.334Z,993.5
2023-11-15T09:34:29.574Z,993.5
2023-11-15T09:35:42.829Z,993.5
2023-11-15T09:36:57.069Z,993.6
2023-11-15T09:38:11.309Z,993.6
2023-11-15T09:39:25.548Z,993.6
2023-11-15T09:40:39.788Z,993.6
2023-11-15T09:41:54.027Z,993.6
2023-11-15T09:43:08.267Z,993.6
2023-11-15T09:44:22.506Z,993.6
2023-11-15T09:45:36.746Z,993.7
2023-11-15T09:46:50.985Z,993.7
2023-11-15T09:48:05.225Z,993.7
2023-11-15T09:49:19.465Z,993.7
2023-11-15T09:50:33.704Z,993.7
2023-11-15T09:51:46.960Z,993.7
2023-11-15T09:53:01.199Z,993.7
2023-11-15T09:54:15.439Z,993.7
2023-11-15T09:55:29.679Z,993.7
2023-11-15T09:56:43.918Z,993.7
2023-11-15T09:57:58.158Z,993.7
2023-11-15T09:59:12.397Z,993.7
2023-11-15T10:00:26.637Z,993.7
2023-11-15T10:01:40.876Z,993.7
2023-11-15T10:02:55.116Z,993.7
2023-11-15T10:04:09.356Z,993.7
2023-11-15T10:05:23.595Z,993.8
2023-11-15T10:06:37.835Z,993.8
2023-11-15T10:07:51.090Z,993.8
2023-11-15T10:09:05.330Z,993.8
2023-11-15T10:10:19.570Z,993.8
2023-11-15T10:11:33.809Z,993.8
2023-11-15T10:12:48.049Z,993.8
2023-11-15T10:14:02.288Z,993.8
2023-11-15T10:15:16.528Z,993.9
2023-11-15T10:16:30.767Z,993.9
2023-11-15T10:17:45.007Z,993.9
2023-11-15T10:18:59.246Z,993.9
2023-11-15T10:20:13.486Z,993.8
2023-11-15T10:21:27.726Z,993.9
2023-11-15T10:22:41.965Z,993.9
2023-11-15T10:23:55.221Z,994
2023-11-15T10:25:09.460Z,994
2023-11-15T10:26:23.700Z,994.1
2023-11-15T10:27:37.939Z,994.1
2023-11-15T10:28:52.179Z,994
2023-11-15T10:30:06.418Z,994.1
2023-11-15T10:31:20.658Z,994.1
2023-11-15T10:32:34.898Z,994
2023-11-15T10:33:49.137Z,994
2023-11-15T10:35:03.377Z,994
2023-11-15T10:36:17.617Z,994.1
2023-11-15T10:37:31.856Z,994.1
2023-11-15T10:38:46.096Z,994.1
2023-11-15T10:39:59.351Z,994.1
2023-11-15T10:41:13.591Z,994.1
2023-11-15T10:42:27.831Z,994.1
2023-11-15T10:43:42.070Z,994.1
2023-11-15T10:44:56.310Z,994.1
2023-11-15T10:46:10.549Z,994.1
2023-11-15T10:47:24.789Z,994.1
2023-11-15T10:48:39.028Z,994.1
2023-11-15T10:49:53.268Z,994.1
2023-11-15T10:51:07.507Z,994.1
2023-11-15T10:52:21.747Z,994.2
2023-11-15T10:53:35.987Z,994.2
2023-11-15T10:54:50.226Z,994.2
2023-11-15T10:56:03.482Z,994.2
2023-11-15T10:57:17.721Z,994.2
2023-11-15T10:58:31.961Z,994.2
2023-11-15T10:59:46.200Z,994.2
2023-11-15T11:01:00.440Z,994.2
2023-11-15T11:02:14.679Z,994.2
2023-11-15T11:03:28.919Z,994.2
2023-11-15T11:04:43.159Z,994.2
2023-11-15T11:05:57.398Z,994.2
2023-11-15T11:07:11.638Z,994.2
2023-11-15T11:08:25.877Z,994.2
2023-11-15T11:09:40.117Z,994.2
2023-11-15T11:10:54.356Z,994.3
2023-11-15T11:12:07.612Z,994.3
2023-11-15T11:13:21.852Z,994.3
2023-11-15T11:14:36.091Z,994.3
2023-11-15T11:15:50.331Z,994.3
2023-11-15T11:17:04.570Z,994.2
2023-11-15T11:18:18.810Z,994.3
2023-11-15T11:19:33.049Z,994.3
2023-11-15T11:20:47.289Z,994.2
2023-11-15T11:22:01.528Z,994.3
2023-11-15T11:23:15.768Z,994.3
2023-11-15T11:24:30.008Z,994.3
2023-11-15T11:25:44.247Z,994.3
2023-11-15T11:26:58.487Z,994.3
2023-11-15T11:28:11.743Z,994.3
2023-11-15T11:29:25.982Z,994.4
2023-11-15T11:30:40.222Z,994.4
2023-11-15T11:31:54.461Z,994.4
2023-11-15T11:33:08.701Z,994.4
2023-11-15T11:34:22.941Z,994.3
2023-11-15T11:35:37.181Z,994.3
2023-11-15T11:36:51.421Z,994.3
2023-11-15T11:38:05.660Z,994.4
2023-11-15T11:39:19.899Z,994.4
2023-11-15T11:40:34.139Z,994.4
2023-11-15T11:41:48.378Z,994.3
2023-11-15T11:43:02.618Z,994.4
2023-11-15T11:44:15.874Z,994.3
2023-11-15T11:45:30.113Z,994.4
2023-11-15T11:46:44.353Z,994.4
2023-11-15T11:47:58.593Z,994.3
2023-11-15T11:49:12.832Z,994.4
2023-11-15T11:50:27.072Z,994.4
2023-11-15T11:51:41.311Z,994.4
2023-11-15T11:52:55.551Z,994.4
2023-11-15T11:54:09.790Z,994.4
2023-11-15T11:55:24.030Z,994.4
2023-11-15T11:56:38.270Z,994.4
2023-11-15T11:57:52.509Z,994.4
2023-11-15T11:59:06.749Z,994.4
2023-11-15T12:00:20.004Z,994.4
2023-11-15T12:01:34.244Z,994.5
2023-11-15T12:02:48.483Z,994.5
2023-11-15T12:04:02.723Z,994.5
2023-11-15T12:05:16.962Z,994.4
2023-11-15T12:06:31.203Z,994.4
2023-11-15T12:07:45.443Z,994.4
2023-11-15T12:08:59.682Z,994.4
2023-11-15T12:10:13.921Z,994.4
2023-11-15T12:11:28.161Z,994.4
2023-11-15T12:12:42.400Z,994.4
2023-11-15T12:13:56.640Z,994.4
2023-11-15T12:15:10.879Z,994.4
2023-11-15T12:16:24.135Z,994.4
2023-11-15T12:17:38.375Z,994.4
2023-11-15T12:18:52.614Z,994.4
2023-11-15T12:20:06.854Z,994.4
2023-11-15T12:21:21.093Z,994.4
2023-11-15T12:22:35.333Z,994.4
2023-11-15T12:23:49.572Z,994.4
2023-11-15T12:25:03.812Z,994.4
2023-11-15T12:26:18.052Z,994.3
2023-11-15T12:27:32.291Z,994.3
2023-11-15T12:28:46.531Z,994.3
2023-11-15T12:30:00.771Z,994.3
2023-11-15T12:31:15.010Z,994.3
2023-11-15T12:32:28.266Z,994.3
2023-11-15T12:33:42.505Z,994.3
2023-11-15T12:34:56.745Z,994.3
2023-11-15T12:36:10.985Z,994.3
2023-11-15T12:37:25.224Z,994.3
2023-11-15T12:38:39.464Z,994.3
2023-11-15T12:39:53.704Z,994.3
2023-11-15T12:41:07.944Z,994.3
2023-11-15T12:42:22.183Z,994.3
2023-11-15T12:43:36.423Z,994.3
2023-11-15T12:44:50.663Z,994.3
2023-11-15T12:46:04.902Z,994.3
2023-11-15T12:47:19.142Z,994.3
2023-11-15T12:48:32.398Z,994.3
2023-11-15T12:49:46.638Z,994.3
2023-11-15T12:51:00.877Z,994.3
2023-11-15T12:52:15.117Z,994.2
2023-11-15T12:53:29.357Z,994.3
2023-11-15T12:54:43.596Z,994.4
2023-11-15T12:55:57.836Z,994.3
2023-11-15T12:57:12.075Z,994.4
2023-11-15T12:58:26.315Z,994.3
2023-11-15T12:59:40.555Z,994.3
2023-11-15T13:00:54.795Z,994.4
2023-11-15T13:02:09.035Z,994.4
2023-11-15T13:03:23.274Z,994.4
2023-11-15T13:04:36.530Z,994.3
2023-11-15T13:05:50.770Z,994.4
2023-11-15T13:07:05.009Z,994.4
2023-11-15T13:08:19.249Z,994.4
2023-11-15T13:09:33.488Z,994.4
2023-11-15T13:10:47.728Z,994.4
2023-11-15T13:12:00.989Z,994.4
2023-11-15T13:13:15.229Z,994.4
2023-11-15T13:14:29.469Z,994.4
2023-11-15T13:15:43.709Z,994.4
2023-11-15T13:16:57.948Z,994.4
2023-11-15T13:18:12.188Z,994.4
2023-11-15T13:19:26.428Z,994.4
2023-11-15T13:20:40.667Z,994.4
2023-11-15T13:21:54.907Z,994.4
2023-11-15T13:23:09.148Z,994.4
2023-11-15T13:24:23.387Z,994.4
2023-11-15T13:25:37.627Z,994.4
2023-11-15T13:26:51.867Z,994.4
2023-11-15T13:28:05.123Z,994.4
2023-11-15T13:29:19.362Z,994.4
2023-11-15T13:30:33.602Z,994.4
2023-11-15T13:31:47.842Z,994.4
2023-11-15T13:33:02.081Z,994.4
2023-11-15T13:34:16.321Z,994.5
2023-11-15T13:35:30.561Z,994.4
2023-11-15T13:36:44.801Z,994.5
2023-11-15T13:37:59.040Z,994.5
2023-11-15T13:39:13.280Z,994.5
2023-11-15T13:40:27.520Z,994.5
2023-11-15T13:41:41.759Z,994.6
2023-11-15T13:42:55.999Z,994.6
2023-11-15T13:44:09.255Z,994.6
2023-11-15T13:45:23.495Z,994.7
2023-11-15T13:46:37.734Z,994.6
2023-11-15T13:47:51.974Z,994.7
2023-11-15T13:49:06.213Z,994.7
2023-11-15T13:50:20.453Z,994.7
2023-11-15T13:51:34.692Z,994.7
2023-11-15T13:52:48.932Z,994.8
2023-11-15T13:54:03.172Z,994.8
2023-11-15T13:55:17.412Z,994.8
2023-11-15T13:56:31.651Z,994.8
2023-11-15T13:57:45.891Z,994.8
2023-11-15T13:59:00.131Z,994.8
2023-11-15T14:00:13.387Z,994.8
2023-11-15T14:01:27.627Z,994.8
2023-11-15T14:02:41.866Z,994.8
2023-11-15T14:03:56.106Z,994.9
2023-11-15T14:05:10.346Z,994.9
2023-11-15T14:06:24.586Z,994.9
2023-11-15T14:07:38.825Z,994.9
2023-11-15T14:08:53.065Z,994.9
2023-11-15T14:10:07.305Z,994.9
2023-11-15T14:11:21.544Z,995
2023-11-15T14:12:35.784Z,994.9
2023-11-15T14:13:50.023Z,994.9
2023-11-15T14:15:04.263Z,995
2023-11-15T14:16:17.518Z,995
2023-11-15T14:17:31.758Z,995
2023-11-15T14:18:45.997Z,995
2023-11-15T14:20:00.237Z,995
2023-11-15T14:21:14.476Z,995
2023-11-15T14:22:28.716Z,995
2023-11-15T14:23:42.955Z,995
2023-11-15T14:24:57.195Z,995
2023-11-15T14:26:11.434Z,995
2023-11-15T14:27:25.674Z,995
2023-11-15T14:28:39.914Z,995.1
2023-11-15T14:29:54.153Z,995.1
2023-11-15T14:31:08.393Z,995
2023-11-15T14:32:21.648Z,995.1
2023-11-15T14:33:35.888Z,995.1
2023-11-15T14:34:50.127Z,995.1
2023-11-15T14:36:04.367Z,995.1
2023-11-15T14:37:18.606Z,995.1
2023-11-15T14:38:32.846Z,995.1
2023-11-15T14:39:47.085Z,995.1
2023-11-15T14:41:01.325Z,995.1
2023-11-15T14:42:15.565Z,995.2
2023-11-15T14:43:29.804Z,995.2
2023-11-15T14:44:44.044Z,995.2
2023-11-15T14:45:58.283Z,995.2
2023-11-15T14:47:12.523Z,995.3
2023-11-15T14:48:25.778Z,995.3
2023-11-15T14:49:40.018Z,995.3
2023-11-15T14:50:54.258Z,995.3
2023-11-15T14:52:08.497Z,995.4
2023-11-15T14:53:22.737Z,995.4
2023-11-15T14:54:36.976Z,995.4
2023-11-15T14:55:51.216Z,995.4
2023-11-15T14:57:05.455Z,995.4
2023-11-15T14:58:19.695Z,995.4
2023-11-15T14:59:33.934Z,995.4
2023-11-15T15:00:48.174Z,995.4
2023-11-15T15:02:02.413Z,995.4
2023-11-15T15:03:16.653Z,995.4
2023-11-15T15:04:29.908Z,995.4
2023-11-15T15:05:44.148Z,995.5
2023-11-15T15:06:58.387Z,995.5
2023-11-15T15:08:12.627Z,995.5
2023-11-15T15:09:26.866Z,995.5
2023-11-15T15:10:41.106Z,995.5
2023-11-15T15:11:55.346Z,995.5
2023-11-15T15:13:09.585Z,995.5
2023-11-15T15:14:23.825Z,995.6
2023-11-15T15:15:38.064Z,995.6
2023-11-15T15:16:52.304Z,995.5
2023-11-15T15:18:06.543Z,995.6
2023-11-15T15:19:20.783Z,995.6
2023-11-15T15:20:34.038Z,995.6
2023-11-15T15:21:48.278Z,995.7
2023-11-15T15:23:02.518Z,995.7
2023-11-15T15:24:16.757Z,995.8
2023-11-15T15:25:30.997Z,995.7
2023-11-15T15:26:45.236Z,995.8
2023-11-15T15:27:59.476Z,995.8
2023-11-15T15:29:13.715Z,995.8
2023-11-15T15:30:27.955Z,995.8
2023-11-15T15:31:42.194Z,995.8
2023-11-15T15:32:56.434Z,995.8
2023-11-15T15:34:10.673Z,995.8
2023-11-15T15:35:24.913Z,995.8
2023-11-15T15:36:38.168Z,995.9
2023-11-15T15:37:52.408Z,995.9
2023-11-15T15:39:06.647Z,995.9
2023-11-15T15:40:20.887Z,995.9
2023-11-15T15:41:35.126Z,995.9
2023-11-15T15:42:49.366Z,995.9
2023-11-15T15:44:03.606Z,995.9
2023-11-15T15:45:17.845Z,995.9
2023-11-15T15:46:32.085Z,996
2023-11-15T15:47:46.324Z,996
2023-11-15T15:49:00.617Z,996
2023-11-15T15:50:14.911Z,996
2023-11-15T15:51:29.204Z,996
2023-11-15T15:52:42.514Z,996
2023-11-15T15:53:56.808Z,996
2023-11-15T15:55:11.101Z,996
2023-11-15T15:56:25.395Z,996.1
2023-11-15T15:57:39.688Z,996.1
2023-11-15T15:58:53.981Z,996.1
2023-11-15T16:00:08.276Z,996.2
2023-11-15T16:01:22.569Z,996.2